createdAt,value
2023-02-27T00:00:14.845Z,13.85
2023-02-27T00:01:16.862Z,13.68
2023-02-27T00:02:18.772Z,14.23
2023-02-27T00:03:20.851Z,13.87
2023-02-27T00:04:22.772Z,13.32
2023-02-27T00:05:24.647Z,13.90
2023-02-27T00:06:27.956Z,13.02
2023-02-27T00:07:30.004Z,12.57
2023-02-27T00:08:32.986Z,11.82
2023-02-27T00:09:35.368Z,11.90
2023-02-27T00:10:37.160Z,11.70
2023-02-27T00:11:39.001Z,11.83
2023-02-27T00:12:41.324Z,11.92
2023-02-27T00:13:43.154Z,11.27
2023-02-27T00:14:45.058Z,11.53
2023-02-27T00:15:48.004Z,11.47
2023-02-27T00:16:50.493Z,11.05
2023-02-27T00:17:52.473Z,11.53
2023-02-27T00:18:54.397Z,11.82
2023-02-27T00:19:56.204Z,11.30
2023-02-27T00:20:57.972Z,12.70
2023-02-27T00:21:59.798Z,12.08
2023-02-27T00:23:01.565Z,12.90
2023-02-27T00:24:03.796Z,11.80
2023-02-27T00:25:07.195Z,12.20
2023-02-27T00:26:09.068Z,11.40
2023-02-27T00:27:10.942Z,11.37
2023-02-27T00:28:12.794Z,11.60
2023-02-27T00:29:14.647Z,11.00
2023-02-27T00:30:16.856Z,10.70
2023-02-27T00:31:18.803Z,10.72
2023-02-27T00:32:20.748Z,11.28
2023-02-27T00:33:22.509Z,11.10
2023-02-27T00:34:24.368Z,11.33
2023-02-27T00:35:26.389Z,11.07
2023-02-27T00:36:28.224Z,10.90
2023-02-27T00:37:30.312Z,11.22
2023-02-27T00:38:34.933Z,10.73
2023-02-27T00:39:36.804Z,10.50
2023-02-27T00:40:38.735Z,10.38
2023-02-27T00:41:40.594Z,10.52
2023-02-27T00:42:42.976Z,10.32
2023-02-27T00:43:44.900Z,9.83
2023-02-27T00:44:46.763Z,9.78
2023-02-27T00:45:49.138Z,9.50
2023-02-27T00:46:51.157Z,10.25
2023-02-27T00:47:53.015Z,10.47
2023-02-27T00:48:56.697Z,10.05
2023-02-27T00:49:58.796Z,10.03
2023-02-27T00:51:00.588Z,10.33
2023-02-27T00:52:02.370Z,9.48
2023-02-27T00:53:04.146Z,9.80
2023-02-27T00:54:05.943Z,9.68
2023-02-27T00:55:08.582Z,10.12
2023-02-27T00:56:10.522Z,9.78
2023-02-27T00:57:12.442Z,10.05
2023-02-27T00:58:14.872Z,9.13
2023-02-27T00:59:16.636Z,9.12
2023-02-27T01:00:18.804Z,9.42
2023-02-27T01:01:20.882Z,9.07
2023-02-27T01:02:22.974Z,10.27
2023-02-27T01:03:24.885Z,9.08
2023-02-27T01:04:26.830Z,9.72
2023-02-27T01:05:28.667Z,9.53
2023-02-27T01:06:30.437Z,9.42
2023-02-27T01:07:32.433Z,9.82
2023-02-27T01:08:35.095Z,9.85
2023-02-27T01:09:37.093Z,9.83
2023-02-27T01:10:38.871Z,10.25
2023-02-27T01:11:40.726Z,11.02
2023-02-27T01:12:42.560Z,11.33
2023-02-27T01:13:46.179Z,11.48
2023-02-27T01:14:48.117Z,12.28
2023-02-27T01:15:50.291Z,13.55
2023-02-27T01:16:52.600Z,14.37
2023-02-27T01:17:54.584Z,16.05
2023-02-27T01:18:56.480Z,17.60
2023-02-27T01:19:58.749Z,17.30
2023-02-27T01:21:00.655Z,16.88
2023-02-27T01:22:02.478Z,16.95
2023-02-27T01:23:04.323Z,16.62
2023-02-27T01:24:06.208Z,16.18
2023-02-27T01:25:08.584Z,16.05
2023-02-27T01:26:10.341Z,16.95
2023-02-27T01:27:12.128Z,17.02
2023-02-27T01:28:15.623Z,17.02
2023-02-27T01:29:17.454Z,16.75
2023-02-27T01:30:19.503Z,15.12
2023-02-27T01:31:21.297Z,15.13
2023-02-27T01:32:23.379Z,15.42
2023-02-27T01:33:25.652Z,16.12
2023-02-27T01:34:27.458Z,15.85
2023-02-27T01:35:29.328Z,15.22
2023-02-27T01:36:31.508Z,15.37
2023-02-27T01:37:33.346Z,15.30
2023-02-27T01:38:35.310Z,15.45
2023-02-27T01:39:37.220Z,15.12
2023-02-27T01:40:40.691Z,14.80
2023-02-27T01:41:42.762Z,14.92
2023-02-27T01:42:46.578Z,15.43
2023-02-27T01:43:57.189Z,14.97
2023-02-27T01:45:27.158Z,15.18
2023-02-27T01:46:30.719Z,14.82
2023-02-27T01:47:32.903Z,13.98
2023-02-27T01:48:38.821Z,13.93
2023-02-27T01:49:40.828Z,14.28
2023-02-27T01:50:49.307Z,13.52
2023-02-27T01:51:55.449Z,13.48
2023-02-27T01:53:00.194Z,13.57
2023-02-27T01:54:04.350Z,13.38
2023-02-27T01:55:12.670Z,13.03
2023-02-27T01:56:20.961Z,12.67
2023-02-27T01:57:22.828Z,12.90
2023-02-27T01:58:27.058Z,12.52
2023-02-27T01:59:30.160Z,12.50
2023-02-27T02:00:32.049Z,12.80
2023-02-27T02:01:35.823Z,13.02
2023-02-27T02:02:43.338Z,13.30
2023-02-27T02:04:02.757Z,16.10
2023-02-27T02:05:07.041Z,20.92
2023-02-27T02:06:10.231Z,22.03
2023-02-27T02:07:15.778Z,24.15
2023-02-27T02:08:20.274Z,24.50
2023-02-27T02:09:22.671Z,22.75
2023-02-27T02:10:24.835Z,20.88
2023-02-27T02:11:27.554Z,20.00
2023-02-27T02:12:34.039Z,18.78
2023-02-27T02:13:37.480Z,16.23
2023-02-27T02:14:39.307Z,14.53
2023-02-27T02:16:06.087Z,13.68
2023-02-27T02:17:32.967Z,12.87
2023-02-27T02:19:16.948Z,12.55
2023-02-27T02:20:43.708Z,12.38
2023-02-27T02:21:57.157Z,12.00
2023-02-27T02:23:26.000Z,11.95
2023-02-27T02:24:53.676Z,11.70
2023-02-27T02:26:48.794Z,12.07
2023-02-27T02:28:28.074Z,12.32
2023-02-27T02:30:00.447Z,12.25
2023-02-27T02:31:24.847Z,11.72
2023-02-27T02:32:47.097Z,12.62
2023-02-27T02:34:13.428Z,12.50
2023-02-27T02:35:48.092Z,12.12
2023-02-27T02:37:14.665Z,12.38
2023-02-27T02:38:40.821Z,11.72
2023-02-27T02:39:54.745Z,12.80
2023-02-27T02:41:02.375Z,11.72
2023-02-27T02:42:08.818Z,11.13
2023-02-27T02:43:20.131Z,11.65
2023-02-27T02:44:40.520Z,11.78
2023-02-27T02:45:53.855Z,10.77
2023-02-27T02:47:10.696Z,11.38
2023-02-27T02:48:47.580Z,12.63
2023-02-27T02:50:11.389Z,12.72
2023-02-27T02:51:18.245Z,12.50
2023-02-27T02:52:23.185Z,12.82
2023-02-27T02:53:37.182Z,12.90
2023-02-27T02:54:54.868Z,11.87
2023-02-27T02:56:04.737Z,11.55
2023-02-27T02:57:22.284Z,11.03
2023-02-27T02:58:59.684Z,10.83
2023-02-27T03:00:15.408Z,11.20
2023-02-27T03:01:22.381Z,10.67
2023-02-27T03:02:28.409Z,10.82
2023-02-27T03:03:38.900Z,10.63
2023-02-27T03:04:55.032Z,11.37
2023-02-27T03:06:08.894Z,11.03
2023-02-27T03:07:19.250Z,10.80
2023-02-27T03:08:27.099Z,10.90
2023-02-27T03:09:41.602Z,10.47
2023-02-27T03:10:55.424Z,10.47
2023-02-27T03:11:59.144Z,11.03
2023-02-27T03:13:10.244Z,10.45
2023-02-27T03:14:27.457Z,11.27
2023-02-27T03:15:36.898Z,10.92
2023-02-27T03:16:43.143Z,11.27
2023-02-27T03:17:53.507Z,10.20
2023-02-27T03:19:18.500Z,10.43
2023-02-27T03:20:31.704Z,10.62
2023-02-27T03:21:57.201Z,10.65
2023-02-27T03:23:05.600Z,10.97
2023-02-27T03:24:10.693Z,10.50
2023-02-27T03:25:14.894Z,10.32
2023-02-27T03:26:24.804Z,10.17
2023-02-27T03:27:32.010Z,9.87
2023-02-27T03:28:39.358Z,10.23
2023-02-27T03:29:54.842Z,10.80
2023-02-27T03:31:02.155Z,11.22
2023-02-27T03:32:10.942Z,11.17
2023-02-27T03:33:19.098Z,11.37
2023-02-27T03:34:22.673Z,11.03
2023-02-27T03:35:36.777Z,11.67
2023-02-27T03:36:47.868Z,11.85
2023-02-27T03:38:02.369Z,11.93
2023-02-27T03:39:42.944Z,12.30
2023-02-27T03:40:50.695Z,12.55
2023-02-27T03:42:01.436Z,13.77
2023-02-27T03:43:29.437Z,16.70
2023-02-27T03:44:38.312Z,15.92
2023-02-27T03:45:49.148Z,14.52
2023-02-27T03:46:51.134Z,13.25
2023-02-27T03:47:53.476Z,12.25
2023-02-27T03:48:55.289Z,11.72
2023-02-27T03:49:57.421Z,11.53
2023-02-27T03:50:59.556Z,11.27
2023-02-27T03:52:01.478Z,11.47
2023-02-27T03:53:13.609Z,10.55
2023-02-27T03:54:28.200Z,10.53
2023-02-27T03:55:34.153Z,10.28
2023-02-27T03:56:42.571Z,9.60
2023-02-27T03:57:47.136Z,9.95
2023-02-27T03:58:49.685Z,9.57
2023-02-27T03:59:53.287Z,9.93
2023-02-27T04:00:55.417Z,9.75
2023-02-27T04:01:58.678Z,9.42
2023-02-27T04:03:01.432Z,8.83
2023-02-27T04:04:08.561Z,9.12
2023-02-27T04:05:10.377Z,9.12
2023-02-27T04:06:30.636Z,9.33
2023-02-27T04:07:48.593Z,9.15
2023-02-27T04:09:05.628Z,9.15
2023-02-27T04:10:34.811Z,9.12
2023-02-27T04:12:03.842Z,9.25
2023-02-27T04:13:21.669Z,8.95
2023-02-27T04:14:35.451Z,8.73
2023-02-27T04:15:50.684Z,9.27
2023-02-27T04:17:08.964Z,9.00
2023-02-27T04:18:19.013Z,9.70
2023-02-27T04:19:32.668Z,9.22
2023-02-27T04:20:37.558Z,9.47
2023-02-27T04:22:16.638Z,9.47
2023-02-27T04:23:40.084Z,9.48
2023-02-27T04:24:47.476Z,10.08
2023-02-27T04:26:05.189Z,10.07
2023-02-27T04:27:10.635Z,10.62
2023-02-27T04:28:25.908Z,9.92
2023-02-27T04:29:50.756Z,10.00
2023-02-27T04:31:10.674Z,10.05
2023-02-27T04:32:37.131Z,10.27
2023-02-27T04:33:46.613Z,11.18
2023-02-27T04:34:53.302Z,10.85
2023-02-27T04:36:24.204Z,10.58
2023-02-27T04:37:35.903Z,10.22
2023-02-27T04:38:58.619Z,10.93
2023-02-27T04:40:06.099Z,9.92
2023-02-27T04:41:29.711Z,9.77
2023-02-27T04:42:35.228Z,10.18
2023-02-27T04:43:39.745Z,9.85
2023-02-27T04:44:42.925Z,9.83
2023-02-27T04:45:46.679Z,10.15
2023-02-27T04:46:50.595Z,10.70
2023-02-27T04:47:58.091Z,10.00
2023-02-27T04:49:05.835Z,10.57
2023-02-27T04:50:13.295Z,10.45
2023-02-27T04:51:22.302Z,10.53
2023-02-27T04:52:30.609Z,9.95
2023-02-27T04:53:43.621Z,8.77
2023-02-27T04:54:57.146Z,7.75
2023-02-27T04:56:05.866Z,8.20
2023-02-27T04:57:11.771Z,8.23
2023-02-27T04:58:24.446Z,8.17
2023-02-27T04:59:40.189Z,7.98
2023-02-27T05:00:47.274Z,8.68
2023-02-27T05:02:10.952Z,8.80
2023-02-27T05:03:18.433Z,8.35
2023-02-27T05:04:22.854Z,10.93
2023-02-27T05:05:28.556Z,14.23
2023-02-27T05:06:34.001Z,12.72
2023-02-27T05:07:41.685Z,12.60
2023-02-27T05:09:02.113Z,10.50
2023-02-27T05:10:07.012Z,9.35
2023-02-27T05:11:30.903Z,9.12
2023-02-27T05:12:39.279Z,8.50
2023-02-27T05:13:48.938Z,8.43
2023-02-27T05:15:02.468Z,8.67
2023-02-27T05:16:11.813Z,8.55
2023-02-27T05:17:22.865Z,7.80
2023-02-27T05:18:25.298Z,7.47
2023-02-27T05:19:27.157Z,8.08
2023-02-27T05:20:50.376Z,8.05
2023-02-27T05:22:07.665Z,17.78
2023-02-27T05:23:18.258Z,13.33
2023-02-27T05:24:36.852Z,9.77
2023-02-27T05:25:49.246Z,8.10
2023-02-27T05:27:10.236Z,7.55
2023-02-27T05:28:23.904Z,7.35
2023-02-27T05:29:37.508Z,7.15
2023-02-27T05:30:59.701Z,7.58
2023-02-27T05:32:17.421Z,7.40
2023-02-27T05:33:28.065Z,7.60
2023-02-27T05:34:39.944Z,6.98
2023-02-27T05:35:57.708Z,7.12
2023-02-27T05:37:09.813Z,7.23
2023-02-27T05:38:20.616Z,7.55
2023-02-27T05:39:24.421Z,7.12
2023-02-27T05:40:32.940Z,7.13
2023-02-27T05:41:40.618Z,7.23
2023-02-27T05:42:54.452Z,7.30
2023-02-27T05:44:02.634Z,7.83
2023-02-27T05:45:13.311Z,7.97
2023-02-27T05:46:20.785Z,7.75
2023-02-27T05:47:27.121Z,7.68
2023-02-27T05:48:37.371Z,7.33
2023-02-27T05:49:52.430Z,7.73
2023-02-27T05:50:56.165Z,7.30
2023-02-27T05:52:01.971Z,8.13
2023-02-27T05:53:10.527Z,7.62
2023-02-27T05:54:21.468Z,8.28
2023-02-27T05:55:37.542Z,7.88
2023-02-27T05:56:40.563Z,8.68
2023-02-27T05:57:47.832Z,10.35
2023-02-27T05:59:02.492Z,11.48
2023-02-27T06:00:18.235Z,12.47
2023-02-27T06:01:20.034Z,13.23
2023-02-27T06:02:22.133Z,11.87
2023-02-27T06:03:24.835Z,10.18
2023-02-27T06:04:26.736Z,9.05
2023-02-27T06:05:29.062Z,8.18
2023-02-27T06:06:31.231Z,7.95
2023-02-27T06:07:34.293Z,7.58
2023-02-27T06:08:36.577Z,7.63
2023-02-27T06:09:38.448Z,7.52
2023-02-27T06:10:40.267Z,8.07
2023-02-27T06:11:42.558Z,8.42
2023-02-27T06:12:44.334Z,8.45
2023-02-27T06:13:46.157Z,8.75
2023-02-27T06:14:48.034Z,9.67
2023-02-27T06:15:50.487Z,10.03
2023-02-27T06:16:52.352Z,10.88
2023-02-27T06:17:54.562Z,10.53
2023-02-27T06:18:56.651Z,10.43
2023-02-27T06:19:58.437Z,11.12
2023-02-27T06:21:00.473Z,11.42
2023-02-27T06:22:02.272Z,11.00
2023-02-27T06:23:04.060Z,10.20
2023-02-27T06:24:06.118Z,10.05
2023-02-27T06:25:08.236Z,10.57
2023-02-27T06:26:13.728Z,10.45
2023-02-27T06:27:15.554Z,10.13
2023-02-27T06:28:17.403Z,9.95
2023-02-27T06:29:19.252Z,9.92
2023-02-27T06:30:21.060Z,10.33
2023-02-27T06:31:22.986Z,10.43
2023-02-27T06:32:25.857Z,10.52
2023-02-27T06:33:27.800Z,10.70
2023-02-27T06:34:29.862Z,10.77
2023-02-27T06:35:31.898Z,10.00
2023-02-27T06:36:33.954Z,9.53
2023-02-27T06:37:35.812Z,9.75
2023-02-27T06:38:37.977Z,9.83
2023-02-27T06:39:39.896Z,10.10
2023-02-27T06:40:42.533Z,9.77
2023-02-27T06:41:44.427Z,9.50
2023-02-27T06:42:46.316Z,9.62
2023-02-27T06:43:48.754Z,9.37
2023-02-27T06:44:50.701Z,11.98
2023-02-27T06:45:55.859Z,12.52
2023-02-27T06:46:58.045Z,12.42
2023-02-27T06:47:59.963Z,11.80
2023-02-27T06:49:02.267Z,10.97
2023-02-27T06:50:05.479Z,10.88
2023-02-27T06:51:07.603Z,10.25
2023-02-27T06:52:09.639Z,10.28
2023-02-27T06:53:11.528Z,10.22
2023-02-27T06:54:13.976Z,9.50
2023-02-27T06:55:21.548Z,8.07
2023-02-27T06:56:23.508Z,8.33
2023-02-27T06:57:25.949Z,8.02
2023-02-27T06:58:28.104Z,8.60
2023-02-27T06:59:29.866Z,7.97
2023-02-27T07:00:31.708Z,7.10
2023-02-27T07:01:33.670Z,6.97
2023-02-27T07:02:35.981Z,8.17
2023-02-27T07:03:38.112Z,7.73
2023-02-27T07:04:40.738Z,7.55
2023-02-27T07:05:42.782Z,7.67
2023-02-27T07:07:33.840Z,7.78
2023-02-27T07:08:06.759Z,8.28
2023-02-27T07:09:08.741Z,8.32
2023-02-27T07:10:13.767Z,8.73
2023-02-27T07:11:15.865Z,8.52
2023-02-27T07:12:17.717Z,8.12
2023-02-27T07:13:20.056Z,8.17
2023-02-27T07:14:23.093Z,7.72
2023-02-27T07:15:24.933Z,8.13
2023-02-27T07:16:27.145Z,8.28
2023-02-27T07:17:29.338Z,7.90
2023-02-27T07:18:31.428Z,7.27
2023-02-27T07:19:35.934Z,7.52
2023-02-27T07:20:38.570Z,8.50
2023-02-27T07:21:40.524Z,8.02
2023-02-27T07:22:42.797Z,8.20
2023-02-27T07:23:45.206Z,8.23
2023-02-27T07:24:47.871Z,7.63
2023-02-27T07:25:50.068Z,7.62
2023-02-27T07:26:51.923Z,7.75
2023-02-27T07:27:53.724Z,7.73
2023-02-27T07:28:55.726Z,7.65
2023-02-27T07:29:57.539Z,7.65
2023-02-27T07:31:01.295Z,7.53
2023-02-27T07:32:03.495Z,6.83
2023-02-27T07:33:06.127Z,7.50
2023-02-27T07:34:09.651Z,7.22
2023-02-27T07:35:12.133Z,7.68
2023-02-27T07:36:13.994Z,7.57
2023-02-27T07:37:16.032Z,7.67
2023-02-27T07:38:19.158Z,7.13
2023-02-27T07:39:20.995Z,7.80
2023-02-27T07:40:22.842Z,7.25
2023-02-27T07:41:30.723Z,7.33
2023-02-27T07:42:33.395Z,7.00
2023-02-27T07:43:35.204Z,7.25
2023-02-27T07:44:37.083Z,7.50
2023-02-27T07:45:38.885Z,7.68
2023-02-27T07:46:40.798Z,7.58
2023-02-27T07:47:42.686Z,7.90
2023-02-27T07:48:44.482Z,7.93
2023-02-27T07:49:46.390Z,7.80
2023-02-27T07:50:48.175Z,8.25
2023-02-27T07:51:50.075Z,8.98
2023-02-27T07:52:53.012Z,8.55
2023-02-27T07:53:59.291Z,8.37
2023-02-27T07:55:01.140Z,7.73
2023-02-27T07:56:03.070Z,8.00
2023-02-27T07:57:05.675Z,7.58
2023-02-27T07:58:07.977Z,7.75
2023-02-27T07:59:09.987Z,7.53
2023-02-27T08:00:12.607Z,8.20
2023-02-27T08:01:14.889Z,7.35
2023-02-27T08:02:16.831Z,7.62
2023-02-27T08:03:18.638Z,8.22
2023-02-27T08:04:20.675Z,8.65
2023-02-27T08:05:22.533Z,8.33
2023-02-27T08:06:25.540Z,7.88
2023-02-27T08:07:27.636Z,7.55
2023-02-27T08:08:29.772Z,7.85
2023-02-27T08:09:31.722Z,8.12
2023-02-27T08:10:33.519Z,8.12
2023-02-27T08:11:35.345Z,8.42
2023-02-27T08:12:37.187Z,9.10
2023-02-27T08:14:03.266Z,8.52
2023-02-27T08:15:00.765Z,7.85
2023-02-27T08:16:02.687Z,7.53
2023-02-27T08:17:04.908Z,8.98
2023-02-27T08:18:06.823Z,8.97
2023-02-27T08:19:09.057Z,8.78
2023-02-27T08:20:14.356Z,7.73
2023-02-27T08:21:16.472Z,7.87
2023-02-27T08:22:18.504Z,7.80
2023-02-27T08:23:20.325Z,8.10
2023-02-27T08:24:22.264Z,7.78
2023-02-27T08:25:24.477Z,8.17
2023-02-27T08:26:26.644Z,8.25
2023-02-27T08:27:28.785Z,8.37
2023-02-27T08:28:31.703Z,8.20
2023-02-27T08:29:33.773Z,9.25
2023-02-27T08:30:35.598Z,8.05
2023-02-27T08:31:37.639Z,8.25
2023-02-27T08:32:39.781Z,8.57
2023-02-27T08:33:41.693Z,8.43
2023-02-27T08:34:43.482Z,8.85
2023-02-27T08:35:45.592Z,8.58
2023-02-27T08:36:47.388Z,9.25
2023-02-27T08:37:49.838Z,8.77
2023-02-27T08:38:52.096Z,8.58
2023-02-27T08:39:53.862Z,8.32
2023-02-27T08:40:55.872Z,7.87
2023-02-27T08:41:57.694Z,8.20
2023-02-27T08:42:59.659Z,7.35
2023-02-27T08:44:01.682Z,7.88
2023-02-27T08:45:04.597Z,8.00
2023-02-27T08:46:06.641Z,7.67
2023-02-27T08:47:08.464Z,8.48
2023-02-27T08:48:14.033Z,8.65
2023-02-27T08:49:15.914Z,9.18
2023-02-27T08:50:17.986Z,7.92
2023-02-27T08:51:19.781Z,7.35
2023-02-27T08:52:24.895Z,6.65
2023-02-27T08:53:30.904Z,7.70
2023-02-27T08:54:39.521Z,7.77
2023-02-27T08:55:42.637Z,7.95
2023-02-27T08:56:44.949Z,8.17
2023-02-27T08:57:46.998Z,9.07
2023-02-27T08:58:48.913Z,9.35
2023-02-27T08:59:51.095Z,9.67
2023-02-27T09:00:53.064Z,9.60
2023-02-27T09:01:54.911Z,7.63
2023-02-27T09:02:57.182Z,6.78
2023-02-27T09:03:59.067Z,7.25
2023-02-27T09:05:01.397Z,7.30
2023-02-27T09:06:03.378Z,6.28
2023-02-27T09:07:05.311Z,6.00
2023-02-27T09:08:07.265Z,6.35
2023-02-27T09:09:09.477Z,6.52
2023-02-27T09:10:13.061Z,6.40
2023-02-27T09:11:15.449Z,6.65
2023-02-27T09:12:17.311Z,7.52
2023-02-27T09:13:19.754Z,7.87
2023-02-27T09:14:21.927Z,9.00
2023-02-27T09:15:23.787Z,9.73
2023-02-27T09:16:26.256Z,8.57
2023-02-27T09:17:28.418Z,7.37
2023-02-27T09:18:30.586Z,7.42
2023-02-27T09:19:32.858Z,8.60
2023-02-27T09:20:37.919Z,8.30
2023-02-27T09:21:40.549Z,7.22
2023-02-27T09:22:42.740Z,6.90
2023-02-27T09:23:44.606Z,6.58
2023-02-27T09:24:47.440Z,6.40
2023-02-27T09:25:49.257Z,7.03
2023-02-27T09:26:51.713Z,7.28
2023-02-27T09:27:54.456Z,7.62
2023-02-27T09:28:56.466Z,7.63
2023-02-27T09:29:59.328Z,8.37
2023-02-27T09:31:07.455Z,7.90
2023-02-27T09:32:09.464Z,6.65
2023-02-27T09:33:11.428Z,6.27
2023-02-27T09:34:13.503Z,5.62
2023-02-27T09:35:15.977Z,5.63
2023-02-27T09:36:18.752Z,6.05
2023-02-27T09:37:20.748Z,6.27
2023-02-27T09:38:23.139Z,6.27
2023-02-27T09:39:25.030Z,6.42
2023-02-27T09:40:28.000Z,6.73
2023-02-27T09:41:57.356Z,6.98
2023-02-27T09:43:03.750Z,10.17
2023-02-27T09:44:39.884Z,8.93
2023-02-27T09:45:51.929Z,8.43
2023-02-27T09:46:54.321Z,6.87
2023-02-27T09:48:00.705Z,6.42
2023-02-27T09:49:04.820Z,6.48
2023-02-27T09:50:17.529Z,7.13
2023-02-27T09:51:20.597Z,8.07
2023-02-27T09:52:22.444Z,14.17
2023-02-27T09:53:39.960Z,10.85
2023-02-27T09:54:44.291Z,7.07
2023-02-27T09:55:46.814Z,6.88
2023-02-27T09:56:57.117Z,6.28
2023-02-27T09:58:04.547Z,6.05
2023-02-27T09:59:15.621Z,6.57
2023-02-27T10:00:32.616Z,6.67
2023-02-27T10:01:44.677Z,6.50
2023-02-27T10:03:07.845Z,6.70
2023-02-27T10:04:28.291Z,5.73
2023-02-27T10:05:44.006Z,7.30
2023-02-27T10:07:04.099Z,11.10
2023-02-27T10:08:19.874Z,12.20
2023-02-27T10:09:40.083Z,11.68
2023-02-27T10:10:41.898Z,9.85
2023-02-27T10:12:16.029Z,8.47
2023-02-27T10:13:35.885Z,6.82
2023-02-27T10:14:43.882Z,6.27
2023-02-27T10:15:50.432Z,6.60
2023-02-27T10:16:54.054Z,6.28
2023-02-27T10:18:20.209Z,6.33
2023-02-27T10:19:31.631Z,6.77
2023-02-27T10:20:38.386Z,6.20
2023-02-27T10:21:45.770Z,6.28
2023-02-27T10:22:51.586Z,6.77
2023-02-27T10:23:59.582Z,6.45
2023-02-27T10:25:28.443Z,6.43
2023-02-27T10:26:38.454Z,7.45
2023-02-27T10:27:40.473Z,6.90
2023-02-27T10:28:43.134Z,6.57
2023-02-27T10:29:46.059Z,6.37
2023-02-27T10:30:52.402Z,7.07
2023-02-27T10:32:21.260Z,6.95
2023-02-27T10:33:28.430Z,6.77
2023-02-27T10:34:31.623Z,6.78
2023-02-27T10:35:39.200Z,7.37
2023-02-27T10:36:41.187Z,7.37
2023-02-27T10:37:51.084Z,6.58
2023-02-27T10:39:10.797Z,6.72
2023-02-27T10:40:15.421Z,7.77
2023-02-27T10:41:19.471Z,8.08
2023-02-27T10:42:25.124Z,10.98
2023-02-27T10:43:35.719Z,17.75
2023-02-27T10:44:38.384Z,18.60
2023-02-27T10:45:40.168Z,18.08
2023-02-27T10:46:42.568Z,19.65
2023-02-27T10:47:44.773Z,12.42
2023-02-27T10:48:46.833Z,9.27
2023-02-27T10:49:49.205Z,7.52
2023-02-27T10:50:52.235Z,7.23
2023-02-27T10:52:14.915Z,7.18
2023-02-27T10:53:24.709Z,7.77
2023-02-27T10:54:26.603Z,6.55
2023-02-27T10:55:38.377Z,6.72
2023-02-27T10:56:40.483Z,6.05
2023-02-27T10:57:43.212Z,6.47
2023-02-27T10:58:45.748Z,5.95
2023-02-27T11:00:01.708Z,5.93
2023-02-27T11:01:09.495Z,5.78
2023-02-27T11:02:17.263Z,5.60
2023-02-27T11:03:33.201Z,5.73
2023-02-27T11:04:40.229Z,6.52
2023-02-27T11:05:42.109Z,6.65
2023-02-27T11:06:44.154Z,8.13
2023-02-27T11:07:46.322Z,10.03
2023-02-27T11:09:23.835Z,11.67
2023-02-27T11:10:28.299Z,22.20
2023-02-27T11:11:30.536Z,12.93
2023-02-27T11:12:34.767Z,8.57
2023-02-27T11:13:39.779Z,8.50
2023-02-27T11:14:51.544Z,9.40
2023-02-27T11:16:08.331Z,7.68
2023-02-27T11:17:22.328Z,6.73
2023-02-27T11:18:29.429Z,7.35
2023-02-27T11:19:38.549Z,7.50
2023-02-27T11:20:43.504Z,7.32
2023-02-27T11:22:00.624Z,7.17
2023-02-27T11:23:11.831Z,6.80
2023-02-27T11:24:20.425Z,6.30
2023-02-27T11:25:26.154Z,6.73
2023-02-27T11:26:31.166Z,7.50
2023-02-27T11:27:33.506Z,7.13
2023-02-27T11:28:36.162Z,7.05
2023-02-27T11:29:38.031Z,6.77
2023-02-27T11:30:43.014Z,7.07
2023-02-27T11:32:20.071Z,6.40
2023-02-27T11:33:22.115Z,6.60
2023-02-27T11:34:27.839Z,6.35
2023-02-27T11:35:38.340Z,6.08
2023-02-27T11:36:43.882Z,7.33
2023-02-27T11:37:49.578Z,7.98
2023-02-27T11:38:56.078Z,7.40
2023-02-27T11:40:05.515Z,7.50
2023-02-27T11:41:09.087Z,8.00
2023-02-27T11:42:30.986Z,7.27
2023-02-27T11:43:51.108Z,7.22
2023-02-27T11:45:06.578Z,6.43
2023-02-27T11:46:41.802Z,6.70
2023-02-27T11:47:39.306Z,6.53
2023-02-27T11:48:47.871Z,6.50
2023-02-27T11:50:26.934Z,6.62
2023-02-27T11:52:01.256Z,7.32
2023-02-27T11:53:17.629Z,7.83
2023-02-27T11:54:45.572Z,7.43
2023-02-27T11:55:49.134Z,7.23
2023-02-27T11:56:57.748Z,7.15
2023-02-27T11:58:22.995Z,7.25
2023-02-27T11:59:40.468Z,6.23
2023-02-27T12:00:48.012Z,7.75
2023-02-27T12:02:33.890Z,7.85
2023-02-27T12:03:49.620Z,6.12
2023-02-27T12:05:15.260Z,7.18
2023-02-27T12:06:20.902Z,7.30
2023-02-27T12:07:28.719Z,6.80
2023-02-27T12:09:05.004Z,6.70
2023-02-27T12:10:10.297Z,7.15
2023-02-27T12:11:33.933Z,7.63
2023-02-27T12:12:46.711Z,7.00
2023-02-27T12:13:54.865Z,7.27
2023-02-27T12:14:58.812Z,7.57
2023-02-27T12:16:06.135Z,8.42
2023-02-27T12:17:26.516Z,9.12
2023-02-27T12:18:32.570Z,8.18
2023-02-27T12:19:40.590Z,7.20
2023-02-27T12:20:58.069Z,9.45
2023-02-27T12:22:06.246Z,12.95
2023-02-27T12:23:36.177Z,11.73
2023-02-27T12:24:54.434Z,8.97
2023-02-27T12:26:11.640Z,7.50
2023-02-27T12:27:24.954Z,6.83
2023-02-27T12:29:04.000Z,7.45
2023-02-27T12:30:19.031Z,6.98
2023-02-27T12:31:36.199Z,6.75
2023-02-27T12:32:39.293Z,7.02
2023-02-27T12:33:56.091Z,6.77
2023-02-27T12:35:11.404Z,6.22
2023-02-27T12:36:14.542Z,15.83
2023-02-27T12:37:28.595Z,68.63
2023-02-27T12:38:32.730Z,31.68
2023-02-27T12:39:35.100Z,11.02
2023-02-27T12:40:41.547Z,8.22
2023-02-27T12:42:06.144Z,7.57
2023-02-27T12:43:19.259Z,6.87
2023-02-27T12:44:28.632Z,7.10
2023-02-27T12:45:57.144Z,6.53
2023-02-27T12:47:11.186Z,6.32
2023-02-27T12:48:39.830Z,7.37
2023-02-27T12:50:01.586Z,7.93
2023-02-27T12:51:24.070Z,6.92
2023-02-27T12:52:34.566Z,6.88
2023-02-27T12:53:39.376Z,6.65
2023-02-27T12:55:02.107Z,6.65
2023-02-27T12:56:15.154Z,6.72
2023-02-27T12:57:31.832Z,6.88
2023-02-27T12:59:07.995Z,5.92
2023-02-27T13:00:19.796Z,6.88
2023-02-27T13:02:03.249Z,7.03
2023-02-27T13:03:15.474Z,7.12
2023-02-27T13:04:34.906Z,6.98
2023-02-27T13:05:59.488Z,6.83
2023-02-27T13:07:05.357Z,6.48
2023-02-27T13:08:28.339Z,6.40
2023-02-27T13:09:33.387Z,6.82
2023-02-27T13:10:53.817Z,7.02
2023-02-27T13:12:10.876Z,6.28
2023-02-27T13:13:37.461Z,6.27
2023-02-27T13:14:56.254Z,6.43
2023-02-27T13:16:02.110Z,6.85
2023-02-27T13:17:37.705Z,6.47
2023-02-27T13:18:48.302Z,7.03
2023-02-27T13:20:00.454Z,6.67
2023-02-27T13:21:17.881Z,6.50
2023-02-27T13:22:23.031Z,7.10
2023-02-27T13:23:38.278Z,7.42
2023-02-27T13:24:47.670Z,7.33
2023-02-27T13:25:51.369Z,6.85
2023-02-27T13:26:57.947Z,7.28
2023-02-27T13:28:04.554Z,7.45
2023-02-27T13:29:07.903Z,7.18
2023-02-27T13:30:39.085Z,6.60
2023-02-27T13:31:53.292Z,6.98
2023-02-27T13:33:00.282Z,6.40
2023-02-27T13:34:15.061Z,7.67
2023-02-27T13:35:30.015Z,7.88
2023-02-27T13:36:39.513Z,6.68
2023-02-27T13:37:54.497Z,6.88
2023-02-27T13:38:57.398Z,6.20
2023-02-27T13:40:01.580Z,6.38
2023-02-27T13:41:21.542Z,6.78
2023-02-27T13:42:26.808Z,7.52
2023-02-27T13:43:51.391Z,6.93
2023-02-27T13:44:58.336Z,6.73
2023-02-27T13:46:02.126Z,7.03
2023-02-27T13:47:47.734Z,7.03
2023-02-27T13:48:59.365Z,6.55
2023-02-27T13:50:03.965Z,6.60
2023-02-27T13:51:29.318Z,6.65
2023-02-27T13:52:33.908Z,6.82
2023-02-27T13:53:35.765Z,6.45
2023-02-27T13:54:41.518Z,6.70
2023-02-27T13:55:43.515Z,6.63
2023-02-27T13:56:57.659Z,6.95
2023-02-27T13:58:01.240Z,6.63
2023-02-27T13:59:21.073Z,6.87
2023-02-27T14:00:29.108Z,6.73
2023-02-27T14:01:31.442Z,6.47
2023-02-27T14:02:59.509Z,6.23
2023-02-27T14:04:06.245Z,6.17
2023-02-27T14:05:10.930Z,6.52
2023-02-27T14:06:12.984Z,6.18
2023-02-27T14:07:19.103Z,6.85
2023-02-27T14:08:27.259Z,7.23
2023-02-27T14:09:37.068Z,6.12
2023-02-27T14:10:59.947Z,6.37
2023-02-27T14:12:05.036Z,6.58
2023-02-27T14:13:45.092Z,6.03
2023-02-27T14:14:50.318Z,6.43
2023-02-27T14:15:55.932Z,6.65
2023-02-27T14:16:59.283Z,6.72
2023-02-27T14:18:14.260Z,6.78
2023-02-27T14:19:24.786Z,9.58
2023-02-27T14:20:30.579Z,11.92
2023-02-27T14:21:58.546Z,8.12
2023-02-27T14:23:15.487Z,7.10
2023-02-27T14:24:19.072Z,6.98
2023-02-27T14:25:25.892Z,6.72
2023-02-27T14:26:28.414Z,6.33
2023-02-27T14:27:36.707Z,6.82
2023-02-27T14:28:58.193Z,6.88
2023-02-27T14:30:08.019Z,6.88
2023-02-27T14:31:28.590Z,6.77
2023-02-27T14:32:34.539Z,6.72
2023-02-27T14:33:48.486Z,6.40
2023-02-27T14:34:52.430Z,6.73
2023-02-27T14:36:02.214Z,6.68
2023-02-27T14:37:07.497Z,7.28
2023-02-27T14:38:11.501Z,6.90
2023-02-27T14:39:23.656Z,7.27
2023-02-27T14:40:34.011Z,6.57
2023-02-27T14:41:45.037Z,7.27
2023-02-27T14:43:12.206Z,7.73
2023-02-27T14:44:24.526Z,7.72
2023-02-27T14:45:31.050Z,7.35
2023-02-27T14:46:38.873Z,6.85
2023-02-27T14:47:41.524Z,7.52
2023-02-27T14:48:43.714Z,7.78
2023-02-27T14:49:47.371Z,7.72
2023-02-27T14:50:53.592Z,7.88
2023-02-27T14:51:57.046Z,7.28
2023-02-27T14:52:59.385Z,7.47
2023-02-27T14:54:17.733Z,7.60
2023-02-27T14:55:29.790Z,8.38
2023-02-27T14:56:32.624Z,7.70
2023-02-27T14:57:34.895Z,7.83
2023-02-27T14:58:37.389Z,7.65
2023-02-27T14:59:47.541Z,7.35